Documents

Titre Fichier Taille Date
Documentation CPC2000 CPC2000.pdf 140 ko 07 mars 2017 14:56:19 Télécharger
Documentation CTB9100-165 CTB9100_165.pdf 91 ko 07 mars 2017 14:56:20 Télécharger
Documentation CPH6000 CPH6000.pdf 1000 ko 07 mars 2017 14:56:20 Télécharger
Documentation CTB9100-225 CTB9100_225.pdf 93 ko 07 mars 2017 14:56:20 Télécharger
Documentation CTD9300-165 CTD9300_165.pdf 92 ko 07 mars 2017 14:56:21 Télécharger
Documentation CTD9300-650 CTD9300_650.pdf 92 ko 07 mars 2017 14:56:21 Télécharger
Documentation CTD9100-165 CTD9100_165.pdf 160 ko 07 mars 2017 14:56:22 Télécharger
Documentation CTD9100-450 CTD9100_450.pdf 89 ko 07 mars 2017 14:56:22 Télécharger
Documentation CTD9100-650 CTD9100_650.pdf 88 ko 07 mars 2017 14:56:22 Télécharger
Documentation CALYS50 CALYS50.pdf 490 ko 07 mars 2017 14:56:22 Télécharger
Documentation STAS SourcesAutotransformateursV11.pdf 460 ko 07 mars 2017 14:56:23 Télécharger
Application test de composants StasApplicationTestCondensateurs.pdf 280 ko 07 mars 2017 14:56:23 Télécharger
Documentation STAS-CF STAS-CFV1.1.pdf 160 ko 07 mars 2017 14:56:24 Télécharger
Documentation EE10 EE10_2_9.pdf 380 ko 07 mars 2017 14:56:25 Télécharger
Documentation EE08 EE08_V2_0.pdf 490 ko 07 mars 2017 14:56:25 Télécharger
Documentation EE23 EE23_f.pdf 1,2 Mo 07 mars 2017 14:56:25 Télécharger
Documentation EE300EX EE300EX_HT_2_2._pdf.pdf 1,3 Mo 07 mars 2017 14:56:27 Télécharger
Notice d'utilisation BA_EE300EX_e.pdf 13 Mo 07 mars 2017 14:56:27 Télécharger
Documentation EE360 EE360_v1_3.pdf 2,3 Mo 07 mars 2017 14:56:27 Télécharger
Documentation EE35 EE35_fr.pdf 240 ko 07 mars 2017 14:56:28 Télécharger
Documentation EE31 EE31_f.pdf 800 ko 07 mars 2017 14:56:28 Télécharger
Documentation EE650 Fiche_technique_EE650_v1_0.pdf 1,2 Mo 07 mars 2017 14:56:29 Télécharger
Documentation EE660 EE660_1_3.pdf 1,3 Mo 07 mars 2017 14:56:29 Télécharger
Notice d'utilisation BA_EE660_e.pdf 1,1 Mo 07 mars 2017 14:56:29 Télécharger
Documentation DS85 DS85.pdf 170 ko 07 mars 2017 14:56:29 Télécharger
Documentation MKM MKM.pdf 120 ko 07 mars 2017 14:56:30 Télécharger
Documentation TH5 TH5.pdf 80 ko 07 mars 2017 14:56:30 Télécharger
Documentation COMPACT3519 COMPACT3519.pdf 82 ko 07 mars 2017 14:56:30 Télécharger
Documentation COMPACT3129 COMPACT3129.pdf 81 ko 07 mars 2017 14:56:30 Télécharger
Documentation CAL40 CAL40E.pdf 200 ko 07 mars 2017 14:56:31 Télécharger
Documentation CNL40 CNL40E.pdf 180 ko 07 mars 2017 14:56:31 Télécharger
Documentation CNL35L CNL35LE.pdf 270 ko 07 mars 2017 14:56:31 Télécharger
Documentation Coins Noirs Echauffement COINS_NOIRS_EV1_1.pdf 200 ko 07 mars 2017 14:56:32 Télécharger
Documentation BET1 BET1.pdf 98 ko 07 mars 2017 14:56:32 Télécharger
Documentation PDF fiche_technique_EE80.pdf 430 ko 07 mars 2017 14:56:34 Télécharger
Notice d'utilisation ManEE80.pdf 140 ko 07 mars 2017 14:56:34 Télécharger
Documentation EE820 EE820_v1_9.pdf 520 ko 07 mars 2017 14:56:35 Télécharger
Documentation EE850 EE850_v1_7.pdf 540 ko 07 mars 2017 14:56:36 Télécharger
Documentation EE75 EE75.pdf 790 ko 07 mars 2017 14:56:36 Télécharger
Notice d'utilisation ManEE75.pdf 930 ko 07 mars 2017 14:56:36 Télécharger
Documentation OMNIPORT30 FicheTechnique_Omniport30_V1_4.pdf 1 Mo 07 mars 2017 14:56:37 Télécharger
Documentation MacSolarE MACSOLAR_E.pdf 79 ko 07 mars 2017 14:56:37 Télécharger
Documentation PN6515 PN6515.pdf 120 ko 07 mars 2017 14:56:37 Télécharger
Documentation PJ6301 PJ6301.pdf 290 ko 07 mars 2017 14:56:38 Télécharger
Documentation CALYS100 CALYS100.pdf 860 ko 07 mars 2017 14:56:39 Télécharger
Documentation AL45 AL45E.pdf 180 ko 07 mars 2017 14:56:39 Télécharger
Documentation T2RN T2RN.pdf 700 ko 07 mars 2017 14:56:39 Télécharger
Documentation Visulog VISULOG.pdf 2,4 Mo 07 mars 2017 14:56:40 Télécharger
Documentation CPL101 CPL101E.pdf 240 ko 07 mars 2017 14:56:40 Télécharger
Documentation CAL35CA CAL35CAE.pdf 240 ko 07 mars 2017 14:56:40 Télécharger
Documentation CAL45CA CAL45CAE.pdf 240 ko 07 mars 2017 14:56:41 Télécharger
Documentation HUMOR20 Humor20_V3_4.pdf 1,4 Mo 07 mars 2017 14:56:41 Télécharger
Notice d'utilisation (3,4 Mo) ManHUMOR20.pdf 3,4 Mo 07 mars 2017 14:56:42 Télécharger
Documentation OM16 OM16.pdf 150 ko 07 mars 2017 14:56:43 Télécharger
Documentation OM21 OM21.pdf 210 ko 07 mars 2017 14:56:43 Télécharger
Documentation OM22 OM22.pdf 200 ko 07 mars 2017 14:56:43 Télécharger
Documentation OM10 OM10.pdf 56 ko 07 mars 2017 14:56:44 Télécharger
Documentation VNE2 VNE2.pdf 160 ko 07 mars 2017 14:56:44 Télécharger
Documentation TNE2 TNE2.pdf 100 ko 07 mars 2017 14:56:44 Télécharger
Documentation INL35 INL35E.pdf 220 ko 07 mars 2017 14:56:44 Télécharger
Documentation ITI17 AOIP-ITI_17.pdf 300 ko 07 mars 2017 14:56:45 Télécharger
Documentation PERITACT2000 PERITACT2000.pdf 140 ko 07 mars 2017 14:56:45 Télécharger
Documentation DA2000 DA2000.pdf 160 ko 07 mars 2017 14:56:45 Télécharger
Documentation DA85 DA85.pdf 80 ko 07 mars 2017 14:56:46 Télécharger
Documentation EE431 EE431_v1_5.pdf 1,2 Mo 07 mars 2017 14:56:46 Télécharger
Documentation EE10T fiche_technique_EE10-T_V2_9.pdf 350 ko 07 mars 2017 14:56:47 Télécharger
Documentation IPL50 IPL50E.pdf 240 ko 07 mars 2017 14:56:48 Télécharger
Documentation IPL144V IPL144VE.pdf 240 ko 07 mars 2017 14:56:48 Télécharger
Documentation SR11 SR11.pdf 100 ko 07 mars 2017 14:56:48 Télécharger
Documentation SR12 SR12.pdf 120 ko 07 mars 2017 14:56:49 Télécharger
Documentation SR03 SR03.pdf 140 ko 07 mars 2017 14:56:51 Télécharger
Documentation Station Météo STMETEO.pdf 110 ko 07 mars 2017 14:56:54 Télécharger
Documentation Portique MEI SYS_MEI1.pdf 990 ko 07 mars 2017 14:56:55 Télécharger
Documentation AC3 AC3_elec.pdf 97 ko 07 mars 2017 14:56:56 Télécharger
Documentation PERITACT2000K10 PERITACT2000K10.pdf 130 ko 07 mars 2017 14:56:57 Télécharger
Documentation EE671 EE671_V1_4.pdf 530 ko 07 mars 2017 14:56:58 Télécharger
Documentation LI19 LP02LI19.pdf 100 ko 07 mars 2017 14:56:58 Télécharger
Documentation CTH6500 CTH6500.pdf 95 ko 07 mars 2017 14:56:59 Télécharger
Théorie mesure de température Theorie_Temperature_HQ_fr.pdf 43 ko 07 mars 2017 14:57:01 Télécharger
Théorie mesure de l'humidité Theorie_Humidite_fr.pdf 420 ko 07 mars 2017 14:57:02 Télécharger
Calculateur d'humidité EEHumidityCalculator.exe 10 Mo 07 mars 2017 14:57:02 Télécharger
Théorie mesure du taux de CO2 Theorie_CO2.pdf 470 ko 07 mars 2017 14:57:02 Télécharger
Théorie mesure de vitesse d'air Theorie_Vitesse_dAir_HQ_fr.pdf 250 ko 07 mars 2017 14:57:02 Télécharger
Documentation redresseurs et robots RedresseurV10.pdf 170 ko 07 mars 2017 14:57:03 Télécharger
Documentation CTD9100-375 CTD9100_375.pdf 510 ko 07 mars 2017 14:57:06 Télécharger
Documentation DS200 DS200.pdf 130 ko 07 mars 2017 14:57:07 Télécharger
Documentation EE371 EE371_v1_7.pdf 740 ko 07 mars 2017 14:57:08 Télécharger
Documentation EE33 Fiche_technique_EE33_v1-11.pdf 990 ko 07 mars 2017 14:57:09 Télécharger
Documentation INL100 INL100.pdf 460 ko 07 mars 2017 14:57:09 Télécharger
Documentation CEP1000 CEP1000.pdf 120 ko 07 mars 2017 14:57:11 Télécharger
Documentation CTM9100-150 CTM9100_150.pdf 180 ko 07 mars 2017 14:57:11 Télécharger
Documentation LP02 LP02_LP02TR.pdf 99 ko 07 mars 2017 14:57:13 Télécharger
Documentation EE46 EE046_v1_0.pdf 1,3 Mo 07 mars 2017 14:57:14 Télécharger
Documentation CTD9100ZERO CTD9100ZERO.pdf 85 ko 07 mars 2017 14:57:14 Télécharger
Mesure de haute humidité permanente EE33NT.pdf 600 ko 07 mars 2017 14:57:14 Télécharger
Documentation CESM4 CESM4.pdf 160 ko 07 mars 2017 14:57:16 Télécharger
Documentation SR20 SR20.pdf 120 ko 07 mars 2017 14:57:17 Télécharger
Documentation GHT2500 GHT2500fr.pdf 110 ko 07 mars 2017 14:57:18 Télécharger
Documentation EE771 EE771_EE772__v4_4_.pdf 1,4 Mo 07 mars 2017 14:57:19 Télécharger
Documentation CML100 CML100.pdf 990 ko 07 mars 2017 14:57:20 Télécharger
Documentation BHAC BHAC.pdf 870 ko 07 mars 2017 14:57:23 Télécharger
Manipulateur en vidéo Manipulateur.avi 1,3 Mo 07 mars 2017 14:57:23 Télécharger
Documentation FD5 FD5.pdf 310 ko 07 mars 2017 14:57:23 Télécharger
Documentation KAP60 KAP_fr.pdf 520 ko 07 mars 2017 14:57:27 Télécharger
Documentation CALYS75 CALYS75.pdf 860 ko 07 mars 2017 14:57:27 Télécharger
Documentation BEP150 BEP150v2.pdf 85 ko 07 mars 2017 14:57:28 Télécharger
Documentation Coins Noirs Rayonnement COINS_NOIRS_R.pdf 430 ko 07 mars 2017 14:57:29 Télécharger
Documentation HUMLOG20 fiche_technique_HUMLOG20_V2_0.pdf 1,3 Mo 07 mars 2017 14:57:30 Télécharger
Documentation système de vérification CO2 HUMLOG20_TCO_BA_F_V1.4.pdf 690 ko 07 mars 2017 14:57:30 Télécharger
Documentation C6400 6400-El.pdf 810 ko 07 mars 2017 14:57:32 Télécharger
Documentation C62000H 62000H-El.pdf 2,4 Mo 07 mars 2017 14:57:32 Télécharger
Documentation CTD9100-COOL CTD9100-COOL.pdf 160 ko 07 mars 2017 14:57:33 Télécharger
Documentation EE071 Fiche_technique_EE071_v1_18.pdf 530 ko 07 mars 2017 14:57:34 Télécharger
Documentation CPL105 CPL105.pdf 1,2 Mo 07 mars 2017 14:57:34 Télécharger
Documentation tube Venturi VENTURI.pdf 1,4 Mo 07 mars 2017 14:57:35 Télécharger
Catalogue climatisation ventilation CatalogueHVAC2016.pdf 14 Mo 07 mars 2017 14:57:35 Télécharger
Documentation CTH7000 CTH7000.pdf 120 ko 07 mars 2017 14:57:39 Télécharger
Documentation EE772 EE771_EE772__v4_4_.pdf 1,4 Mo 07 mars 2017 14:57:39 Télécharger
Documentation EE776 EE776_v2_1.pdf 1 Mo 07 mars 2017 14:57:40 Télécharger
Documentation EE160 Fiche_Technique_EE160_v2_0.pdf 1,5 Mo 07 mars 2017 14:57:40 Télécharger
Documentation ALD ALD.pdf 92 ko 07 mars 2017 14:57:45 Télécharger
Mesure d'humidité en zone ATEX EE300EX_Transmetteur_ATEX.pdf 2 Mo 07 mars 2017 14:57:45 Télécharger
Documentation CPL165 CPL165.pdf 1 Mo 07 mars 2017 14:57:46 Télécharger
Documentation DS DS.pdf 250 ko 07 mars 2017 14:57:46 Télécharger
Documentation C6500 6500-El.pdf 2 Mo 07 mars 2017 14:57:48 Télécharger
Documentation C61700 61700-El.pdf 1,2 Mo 07 mars 2017 14:57:49 Télécharger
Documentation C61600 61600-El.pdf 900 ko 07 mars 2017 14:57:49 Télécharger
Documentation C61500 61500-El.pdf 1,9 Mo 07 mars 2017 14:57:50 Télécharger
Documentation C62000P 62000P-El.pdf 1,2 Mo 07 mars 2017 14:57:51 Télécharger
Documentation C62000B 62000Be.pdf 1,2 Mo 07 mars 2017 14:57:52 Télécharger
Documentation C62150H-600S/1000S C62150H_600S_1000Se.pdf 2,5 Mo 07 mars 2017 14:57:53 Télécharger
Documentation PCR-B PCR_Bv2e.pdf 1 Mo 07 mars 2017 14:57:54 Télécharger
Documentation EE210 EE210_V2_2.pdf 1000 ko 07 mars 2017 14:57:55 Télécharger
Documentation RTH200 ALPPRTH200.pdf 140 ko 07 mars 2017 14:58:02 Télécharger
Documentation EE_PCA fiche-technique_EE-PCA_1_2.pdf 450 ko 07 mars 2017 14:58:05 Télécharger
Logiciel de configuration E_E_Konfigurator-SW.zip 19 Mo 07 mars 2017 14:58:05 Télécharger
Documentation C6310A 6310AEl.pdf 1,4 Mo 07 mars 2017 14:58:06 Télécharger
Documentation CTR2000 CTR2000.pdf 450 ko 07 mars 2017 14:58:07 Télécharger
Documentation EE871 EE871_V2_1.pdf 610 ko 07 mars 2017 14:58:08 Télécharger
Information application météorologie EE33AppMeteo.pdf 200 ko 07 mars 2017 14:58:09 Télécharger
Documentation DS85P DS85P.pdf 270 ko 07 mars 2017 14:58:10 Télécharger
Documentation EE33-M EE33_M_v1_2.pdf 1,3 Mo 07 mars 2017 14:58:13 Télécharger
Note d'application météorologique EE33AppMeteo.pdf 200 ko 07 mars 2017 14:58:13 Télécharger
Documentation EE210Meteo Fiche_technique_EE210_Outdoor.pdf 920 ko 07 mars 2017 14:58:14 Télécharger
Documentation Transformateurs Variables TransfosVariables.pdf 1,5 Mo 07 mars 2017 14:58:18 Télécharger
Documentation EE800 EE800_v1_2.pdf 960 ko 07 mars 2017 14:58:22 Télécharger
Documentation SR05 SR05.pdf 190 ko 07 mars 2017 14:58:28 Télécharger
Documentation CTI5000 CTI5000.pdf 85 ko 07 mars 2017 14:58:30 Télécharger
Documentation EE441 EE441_v1_4.pdf 1,3 Mo 07 mars 2017 14:58:31 Télécharger
Documentation EE451 EE451_v1_4.pdf 1,3 Mo 07 mars 2017 14:58:32 Télécharger
Documentation EE461 Fiche_Technique_EE461_v1_2_.pdf 1,1 Mo 07 mars 2017 14:58:32 Télécharger
Documentation EE471 EE471_v1_5.pdf 1,3 Mo 07 mars 2017 14:58:33 Télécharger
Fiche d'application STAS TESTEUR StasApplicationTestCondensateurs.pdf 280 ko 07 mars 2017 14:58:34 Télécharger
Documentation EE85 Fiche_technique_EE85_v1_8_.pdf 420 ko 07 mars 2017 14:58:35 Télécharger
Documentation EE364 EE364_V1_5.pdf 440 ko 07 mars 2017 14:58:38 Télécharger
Documentation EE741 EE741_v1_1.pdf 1,7 Mo 07 mars 2017 14:58:39 Télécharger
Documentation EE211 EE211v1_0.pdf 1,4 Mo 07 mars 2017 14:58:40 Télécharger
Documentation C61600 61600-El.pdf 900 ko 20 mars 2017 18:04:19 Télécharger
Documentation EE310 Fiche_technique_EE310_v1_0_.pdf 2,1 Mo 22 mars 2017 08:17:22 Télécharger
Documentation EE381 EE381_v1_8.pdf 700 ko 22 mars 2017 09:23:52 Télécharger
ATV duo motorisé ATVduoM.png 520 ko 10 avril 2017 14:09:48 Télécharger
Document n 619 GalettesGrandModele.png 490 ko 10 avril 2017 14:23:57 Télécharger
Document n 620 Gamme.png 450 ko 10 avril 2017 15:09:36 Télécharger
TC120 TC120.png 57 ko 24 avril 2017 13:08:35 Télécharger
Documentation TC120 TC120_v2.pdf 930 ko 24 avril 2017 13:10:32 Télécharger
Document n 624 EE310.png 340 ko 24 avril 2017 17:02:36 Télécharger
Document n 626 COINS_NOIRS_EdeV1_1.pdf 210 ko 09 juin 2017 15:43:37 Télécharger
Document n 627 COINS_NOIRS_EenV1.1.pdf 200 ko 09 juin 2017 15:44:59 Télécharger
Document n 628 StelltransformatorenNetzteileV11.pdf 460 ko 12 juin 2017 10:00:49 Télécharger
Document n 629 VariableTransformerPowerSuppliesV11.pdf 460 ko 12 juin 2017 10:02:13 Télécharger
STAS-CF Datasheet STAS-CFenV1.1.pdf 1,3 Mo 16 juin 2017 11:47:54 Télécharger
Strahlungsprümöbel Datenblatt COINS_NOIRS_Rde.pdf 440 ko 16 juin 2017 13:49:48 Télécharger
Datasheet Black corner for radiation tests COINS_NOIRS_Ren.pdf 440 ko 16 juin 2017 13:50:53 Télécharger
Document n 633 BHAC3000_6000en.pdf 140 ko 28 juin 2017 15:53:59 Télécharger
Documentation POCDIF FT-POCDIF-FR-v1.pdf 940 ko 06 juillet 2017 10:29:35 Télécharger
Document n 635 ALPPRTH200en.pdf 140 ko 07 juillet 2017 10:08:14 Télécharger
Document n 636 FT-POCDIF-DE-v1.pdf 950 ko 17 juillet 2017 13:58:40 Télécharger
Documentation POC3000 FT-POC-3000-FR-V1.pdf 460 ko 24 juillet 2017 16:03:20 Télécharger
Document n 639 FT-POC-3000-EN-V1.pdf 450 ko 24 juillet 2017 16:03:51 Télécharger
Document n 640 FT-POC-3000-DE-V1.pdf 450 ko 24 juillet 2017 16:04:16 Télécharger
Documentation EE220 EE220_v1_3.pdf 1,7 Mo 25 juillet 2017 11:19:38 Télécharger
Notice d'utilisation EE220 ManEE220.pdf 1 Mo 25 juillet 2017 11:21:57 Télécharger
EE220M EE220.png 430 ko 25 juillet 2017 14:10:20 Télécharger
EE220_EE03 EE220_3.png 330 ko 25 juillet 2017 14:11:24 Télécharger
EE220REF EE220_REF.png 390 ko 25 juillet 2017 14:12:00 Télécharger
Humor20 Autokit Humor20Autokit.png 390 ko 25 juillet 2017 15:27:13 Télécharger
Humor20 EE10 Humor20_EE10.png 430 ko 25 juillet 2017 15:29:55 Télécharger
Document n 648 PhCg.jpg 180 ko 25 juillet 2017 16:15:33 Télécharger